Time;durP1;ratioP1;P1;durP2;ratioP2;P2;SDS_P1;SDS_P2;PMS_P1;PMS_P2;Temp;Humidity;BMP_temperature;BMP_pressure;BME280_temperature;BME280_humidity;BME280_pressure;Samples;Min_cycle;Max_cycle;Signal;HPM_P1;HPM_P2
2022/12/30 00:00:34;;;;;;;13.40;2.47;;;;;;;5.63;100.00;100971.97;5321288;27;20111;-83
2022/12/30 00:03:05;;;;;;;11.65;2.45;;;;;;;5.56;100.00;100973.38;5326003;28;20020;-83
2022/12/30 00:05:36;;;;;;;11.98;2.42;;;;;;;5.58;100.00;100973.25;5318942;27;20027;-81
2022/12/30 00:10:58;;;;;;;12.65;2.85;;;;;;;5.47;100.00;100977.50;5339334;27;20028;-82
2022/12/30 00:34:32;;;;;;;14.15;2.97;;;;;;;5.52;100.00;100995.69;5338880;27;20040;-83
2022/12/30 00:37:04;;;;;;;14.65;3.45;;;;;;;5.45;100.00;100999.69;5339366;27;20036;-83
2022/12/30 00:39:35;;;;;;;17.20;3.58;;;;;;;5.44;100.00;101001.50;5340850;27;20032;-83
2022/12/30 00:44:56;;;;;;;19.15;3.33;;;;;;;5.40;100.00;101004.47;5341859;27;20107;-83
2022/12/30 00:47:28;;;;;;;13.68;3.28;;;;;;;5.38;100.00;101006.38;5344591;27;20229;-83
2022/12/30 00:58:30;;;;;;;13.52;2.95;;;;;;;5.25;100.00;101004.56;5338653;27;20059;-83
2022/12/30 01:01:01;;;;;;;15.30;3.15;;;;;;;5.27;100.00;101004.47;5343966;27;20050;-83
2022/12/30 01:03:33;;;;;;;18.15;3.05;;;;;;;5.19;100.00;101005.00;5319169;27;20027;-83
2022/12/30 01:06:10;;;;;;;15.40;3.58;;;;;;;5.19;100.00;101009.41;5336250;27;20024;-83
2022/12/30 01:08:41;;;;;;;17.70;2.60;;;;;;;5.13;100.00;101009.84;5345366;27;20384;-83
2022/12/30 01:11:13;;;;;;;17.08;3.50;;;;;;;5.12;100.00;101014.28;5339670;27;20028;-83
2022/12/30 01:13:45;;;;;;;15.10;3.35;;;;;;;5.12;100.00;101014.28;5312906;27;20020;-83
2022/12/30 01:16:16;;;;;;;14.82;3.45;;;;;;;5.12;100.00;101014.28;5338807;27;20035;-83
2022/12/30 01:18:48;;;;;;;20.98;3.78;;;;;;;5.10;100.00;101021.44;5352623;27;20055;-83
2022/12/30 01:21:19;;;;;;;15.82;3.30;;;;;;;5.13;100.00;101015.13;5362627;27;20375;-82
2022/12/30 01:23:51;;;;;;;17.48;3.78;;;;;;;5.13;100.00;101012.50;5339068;27;20028;-83
2022/12/30 01:26:22;;;;;;;16.27;3.13;;;;;;;5.08;100.00;100999.56;5346838;27;20030;-82
2022/12/30 01:28:53;;;;;;;13.43;2.90;;;;;;;5.05;100.00;101010.34;5363549;27;20022;-82
2022/12/30 01:31:24;;;;;;;17.55;4.22;;;;;;;5.01;100.00;101020.28;5364469;27;20477;-82
2022/12/30 01:33:56;;;;;;;13.20;3.40;;;;;;;5.01;100.00;101017.63;5362285;27;20016;-83
2022/12/30 01:36:27;;;;;;;14.55;2.80;;;;;;;4.97;100.00;101025.88;5365924;27;20031;-83
2022/12/30 01:38:58;;;;;;;15.20;3.13;;;;;;;4.95;100.00;101028.63;5359059;27;20054;-81
2022/12/30 01:41:30;;;;;;;19.70;4.18;;;;;;;4.97;100.00;101023.25;5345248;27;20034;-82
2022/12/30 01:44:01;;;;;;;16.75;4.03;;;;;;;5.00;100.00;101036.25;5363160;27;20022;-83
2022/12/30 01:46:34;;;;;;;18.92;4.40;;;;;;;4.99;100.00;101032.75;5362191;27;21066;-83
2022/12/30 01:49:06;;;;;;;13.13;3.60;;;;;;;4.97;100.00;101034.66;5359533;27;20031;-83
2022/12/30 01:51:38;;;;;;;19.23;3.65;;;;;;;4.97;100.00;101041.75;5355979;27;20039;-83
2022/12/30 01:54:09;;;;;;;16.33;2.85;;;;;;;4.96;100.00;101055.91;5359688;27;20027;-83
2022/12/30 01:56:41;;;;;;;20.08;4.15;;;;;;;4.97;100.00;101049.69;5362545;27;20187;-83
2022/12/30 01:59:15;;;;;;;13.13;2.78;;;;;;;4.92;100.00;101055.25;5358972;27;20035;-83
2022/12/30 02:01:48;;;;;;;17.63;3.15;;;;;;;4.96;100.00;101056.78;5363568;27;20131;-83
2022/12/30 02:04:24;;;;;;;14.25;3.50;;;;;;;4.92;100.00;101061.38;5361237;27;20102;-83
2022/12/30 02:06:58;;;;;;;16.15;2.88;;;;;;;4.93;100.00;101052.50;5354047;27;20027;-83
2022/12/30 02:09:31;;;;;;;16.38;3.33;;;;;;;5.01;100.00;101048.50;5340374;27;20080;-82
2022/12/30 02:12:05;;;;;;;20.13;3.35;;;;;;;5.04;100.00;101045.69;5366653;27;20023;-82
2022/12/30 02:14:38;;;;;;;15.18;3.17;;;;;;;5.11;100.00;101045.16;5372268;27;20038;-83
2022/12/30 02:17:28;;;;;;;13.05;3.10;;;;;;;5.18;100.00;101042.13;5368854;27;20475;-83
2022/12/30 02:20:22;;;;;;;15.25;3.25;;;;;;;5.25;100.00;101032.81;5324146;27;20484;-83
2022/12/30 02:23:08;;;;;;;17.42;3.45;;;;;;;5.24;100.00;101031.97;5321859;27;20027;-82
2022/12/30 02:25:54;;;;;;;13.55;3.42;;;;;;;5.24;100.00;101031.97;5337767;27;20529;-83
2022/12/30 02:28:53;;;;;;;21.55;3.80;;;;;;;5.20;100.00;101030.47;5316949;27;20032;-83
2022/12/30 02:31:38;;;;;;;17.05;3.45;;;;;;;5.21;100.00;101010.19;5314697;27;20036;-83
2022/12/30 02:34:24;;;;;;;18.30;4.10;;;;;;;5.17;100.00;101009.53;5335667;27;20087;-83
2022/12/30 02:37:40;;;;;;;13.43;3.38;;;;;;;5.15;100.00;101014.06;5334181;27;20404;-83
2022/12/30 02:44:36;;;;;;;17.30;3.10;;;;;;;5.07;100.00;101013.75;5317044;27;20053;-83
2022/12/30 02:46:28;;;;;;;19.92;3.60;;;;;;;4.88;100.00;100998.25;5329992;27;20430;-83
2022/12/30 02:49:01;;;;;;;16.40;2.97;;;;;;;4.89;100.00;100997.28;5334444;27;20032;-83
2022/12/30 02:54:24;;;;;;;14.82;3.28;;;;;;;4.77;100.00;100991.06;5324342;27;20032;-82
2022/12/30 02:56:56;;;;;;;13.68;2.40;;;;;;;4.73;100.00;100979.84;5333090;27;20115;-83
2022/12/30 03:05:53;;;;;;;18.60;2.97;;;;;;;4.52;100.00;100973.28;5330871;27;20032;-83
2022/12/30 03:08:35;;;;;;;10.20;2.65;;;;;;;4.45;100.00;100972.88;5305870;27;20081;-83
2022/12/30 03:11:18;;;;;;;17.38;2.58;;;;;;;4.42;100.00;100974.84;5319561;27;20024;-82
2022/12/30 03:13:52;;;;;;;13.63;3.08;;;;;;;4.35;100.00;100975.25;5326391;27;20035;-83
2022/12/30 03:16:27;;;;;;;18.88;3.38;;;;;;;4.31;100.00;100984.31;5310932;27;20074;-83
2022/12/30 03:19:03;;;;;;;16.58;3.45;;;;;;;4.29;100.00;100985.34;5342515;27;20120;-83
2022/12/30 03:21:40;;;;;;;12.80;2.78;;;;;;;4.23;100.00;100972.56;5360902;27;20038;-83
2022/12/30 03:27:08;;;;;;;17.52;3.30;;;;;;;4.22;100.00;100971.69;5363043;27;20356;-83
2022/12/30 03:29:45;;;;;;;18.23;3.50;;;;;;;4.24;100.00;100974.25;5360089;27;20027;-83
2022/12/30 03:32:18;;;;;;;18.00;3.25;;;;;;;4.20;100.00;100968.31;5361538;27;20039;-83
2022/12/30 03:34:50;;;;;;;15.18;3.25;;;;;;;4.21;100.00;100971.78;5340445;27;20020;-83
2022/12/30 03:37:32;;;;;;;15.60;2.78;;;;;;;4.22;100.00;100965.56;5335312;27;20057;-83
2022/12/30 03:40:10;;;;;;;16.15;3.20;;;;;;;4.21;100.00;100958.59;5362408;27;20037;-82
2022/12/30 03:42:44;;;;;;;17.67;3.13;;;;;;;4.21;100.00;100961.22;5362743;27;20027;-82
2022/12/30 03:45:15;;;;;;;15.68;3.20;;;;;;;4.15;100.00;100958.06;5361067;27;20031;-82
2022/12/30 03:47:47;;;;;;;18.23;3.08;;;;;;;4.11;100.00;100960.97;5361359;27;20031;-83
2022/12/30 03:50:18;;;;;;;12.00;2.67;;;;;;;4.02;100.00;100965.06;5335283;27;20026;-82
2022/12/30 03:52:50;;;;;;;20.77;3.78;;;;;;;3.94;100.00;100964.69;5362335;27;20030;-82
2022/12/30 03:55:21;;;;;;;14.40;2.97;;;;;;;3.88;100.00;100968.56;5357103;27;20031;-83
2022/12/30 03:57:53;;;;;;;24.77;4.28;;;;;;;3.82;100.00;100968.09;5358159;27;20027;-82
2022/12/30 04:00:24;;;;;;;12.85;2.80;;;;;;;3.76;100.00;100977.25;5359677;27;20444;-84
2022/12/30 04:02:55;;;;;;;22.90;3.78;;;;;;;3.71;100.00;100980.16;5344191;27;20114;-83
2022/12/30 04:05:27;;;;;;;18.90;3.33;;;;;;;3.68;100.00;100975.09;5362407;27;20074;-83
2022/12/30 04:07:58;;;;;;;12.18;3.38;;;;;;;3.66;100.00;100982.22;5362435;27;20024;-83
2022/12/30 04:10:29;;;;;;;16.42;3.75;;;;;;;3.63;100.00;100977.16;5363201;27;20491;-83
2022/12/30 04:13:01;;;;;;;16.23;3.15;;;;;;;3.63;100.00;100978.94;5362068;27;20023;-82
2022/12/30 04:15:32;;;;;;;16.80;3.20;;;;;;;3.60;100.00;100979.97;5364267;27;20106;-83
2022/12/30 04:18:03;;;;;;;14.00;3.25;;;;;;;3.62;100.00;100995.72;5356153;27;20094;-83
2022/12/30 04:20:36;;;;;;;19.27;3.58;;;;;;;3.60;100.00;100990.53;5341581;27;20163;-83
2022/12/30 04:23:07;;;;;;;21.27;3.78;;;;;;;3.59;100.00;100994.97;5336618;27;20024;-83
2022/12/30 04:25:38;;;;;;;20.52;3.50;;;;;;;3.61;100.00;100997.50;5337973;27;20023;-82
2022/12/30 04:28:10;;;;;;;17.58;3.58;;;;;;;3.58;100.00;100995.06;5342033;27;20028;-83
2022/12/30 04:30:41;;;;;;;21.98;3.22;;;;;;;3.59;100.00;100989.69;5341108;27;20093;-83
2022/12/30 04:33:12;;;;;;;22.67;3.90;;;;;;;3.59;100.00;100983.53;5339407;27;20031;-83
2022/12/30 04:35:44;;;;;;;17.30;3.30;;;;;;;3.54;100.00;100975.94;5341862;27;20107;-82
2022/12/30 04:38:15;;;;;;;27.10;4.00;;;;;;;3.52;100.00;100975.16;5329815;27;20019;-83
2022/12/30 04:40:46;;;;;;;19.55;3.95;;;;;;;3.54;100.00;100975.94;5324671;27;20061;-82
2022/12/30 04:43:18;;;;;;;18.88;3.72;;;;;;;3.55;100.00;100976.78;5341200;27;20028;-83
2022/12/30 04:45:49;;;;;;;24.50;4.25;;;;;;;3.55;100.00;100974.97;5351227;27;20064;-83
2022/12/30 04:48:20;;;;;;;19.17;3.13;;;;;;;3.52;100.00;100971.69;5355332;27;20448;-82
2022/12/30 04:50:52;;;;;;;15.63;3.15;;;;;;;3.46;100.00;100972.91;5325256;27;20027;-83
2022/12/30 04:53:23;;;;;;;19.33;3.40;;;;;;;3.50;100.00;100976.19;5339628;27;20965;-83
2022/12/30 04:55:55;;;;;;;18.88;4.18;;;;;;;3.52;100.00;100988.34;5335602;27;20028;-83
2022/12/30 04:58:27;;;;;;;14.57;2.92;;;;;;;3.53;100.00;100984.78;5339801;27;20514;-83
2022/12/30 05:00:58;;;;;;;24.17;3.65;;;;;;;3.52;100.00;100963.75;5338985;27;20123;-82
2022/12/30 05:03:29;;;;;;;18.67;3.70;;;;;;;3.47;100.00;100965.84;5337766;27;20458;-83
2022/12/30 05:06:01;;;;;;;18.63;3.55;;;;;;;3.49;100.00;100967.47;5318977;27;20034;-83
2022/12/30 05:08:32;;;;;;;15.68;3.08;;;;;;;3.49;100.00;100969.22;5316829;27;20542;-83
2022/12/30 05:11:03;;;;;;;18.58;3.70;;;;;;;3.47;100.00;100971.09;5329377;27;20032;-83
2022/12/30 05:13:35;;;;;;;20.50;3.85;;;;;;;3.49;100.00;100967.47;5338242;27;20069;-83
2022/12/30 05:16:06;;;;;;;21.77;4.25;;;;;;;3.50;100.00;100961.22;5343180;27;20035;-83
2022/12/30 05:18:37;;;;;;;22.70;3.97;;;;;;;3.52;100.00;100955.84;5333723;27;20175;-83
2022/12/30 05:21:09;;;;;;;17.30;3.70;;;;;;;3.62;100.00;100956.16;5339392;27;20059;-83
2022/12/30 05:26:30;;;;;;;22.02;3.72;;;;;;;3.58;100.00;100945.78;5349659;27;20024;-84
2022/12/30 05:29:01;;;;;;;17.45;3.70;;;;;;;3.66;100.00;100952.38;5344697;27;20058;-82
2022/12/30 05:31:33;;;;;;;19.85;3.60;;;;;;;3.68;100.00;100951.34;5347909;27;20024;-83
2022/12/30 05:34:04;;;;;;;20.27;3.90;;;;;;;3.71;100.00;100948.50;5349554;27;20031;-83
2022/12/30 05:36:36;;;;;;;19.65;3.40;;;;;;;3.81;100.00;100961.13;5325090;27;20092;-82
2022/12/30 05:39:10;;;;;;;14.63;3.30;;;;;;;3.87;100.00;100963.38;5325348;27;20024;-82
2022/12/30 05:41:42;;;;;;;17.73;4.00;;;;;;;3.86;100.00;100965.19;5338185;27;20144;-82
2022/12/30 05:44:14;;;;;;;19.05;4.05;;;;;;;3.88;100.00;100959.81;5354642;27;20020;-82
2022/12/30 05:46:46;;;;;;;16.10;3.95;;;;;;;3.91;100.00;100954.31;5340281;27;20028;-83
2022/12/30 05:49:17;;;;;;;14.80;3.33;;;;;;;3.96;100.00;100957.50;5351867;27;20524;-82
2022/12/30 05:51:48;;;;;;;19.92;3.90;;;;;;;3.97;100.00;100952.13;5346012;27;20099;-82
2022/12/30 05:54:20;;;;;;;20.42;3.97;;;;;;;4.02;100.00;100956.28;5344883;27;20442;-81
2022/12/30 05:56:51;;;;;;;20.42;3.45;;;;;;;4.01;100.00;100950.16;5343574;27;20020;-82
2022/12/30 05:59:22;;;;;;;18.10;3.92;;;;;;;4.04;100.00;100960.53;5339644;27;36471;-83
2022/12/30 06:01:54;;;;;;;24.27;4.40;;;;;;;4.11;100.00;100969.75;5340314;27;20058;-82
2022/12/30 06:04:25;;;;;;;23.20;4.63;;;;;;;4.09;100.00;100965.53;5347186;27;20060;-82
2022/12/30 06:06:56;;;;;;;20.85;4.25;;;;;;;4.13;100.00;100951.16;5344550;27;20050;-82
2022/12/30 06:09:28;;;;;;;19.92;4.03;;;;;;;4.11;100.00;100948.63;5339255;27;20036;-83
2022/12/30 06:11:59;;;;;;;22.77;4.95;;;;;;;4.12;100.00;100946.81;5346211;27;20118;-83
2022/12/30 06:14:30;;;;;;;14.10;3.85;;;;;;;4.16;100.00;100940.41;5351549;27;20058;-82
2022/12/30 06:17:02;;;;;;;23.65;4.97;;;;;;;4.22;100.00;100934.72;5349556;27;20080;-82
2022/12/30 06:19:33;;;;;;;19.90;3.97;;;;;;;4.29;100.00;100929.91;5341763;27;20040;-82
2022/12/30 06:22:04;;;;;;;17.58;4.38;;;;;;;4.29;100.00;100927.25;5338510;27;20039;-82
2022/12/30 06:24:36;;;;;;;20.25;3.83;;;;;;;4.34;100.00;100935.72;5346135;27;20391;-83
2022/12/30 06:27:07;;;;;;;12.55;3.70;;;;;;;4.33;100.00;100918.19;5348678;27;20220;-82
2022/12/30 06:29:38;;;;;;;18.45;3.63;;;;;;;4.37;100.00;100921.50;5339239;27;20081;-82
2022/12/30 06:32:09;;;;;;;15.07;3.42;;;;;;;4.33;100.00;100915.53;5337987;27;20027;-83
2022/12/30 06:34:41;;;;;;;18.17;3.50;;;;;;;4.32;100.00;100914.69;5341426;27;20051;-82
2022/12/30 06:37:12;;;;;;;17.67;3.88;;;;;;;4.32;100.00;100922.63;5342819;27;20023;-83
2022/12/30 06:39:43;;;;;;;16.85;4.72;;;;;;;4.37;100.00;100917.06;5336942;27;20459;-83
2022/12/30 06:42:15;;;;;;;15.95;4.43;;;;;;;4.32;100.00;100912.06;5316919;27;20040;-83
2022/12/30 06:44:46;;;;;;;20.50;3.65;;;;;;;4.33;100.00;100902.34;5314671;27;20028;-83
2022/12/30 06:47:17;;;;;;;15.55;3.33;;;;;;;4.26;100.00;100896.63;5334884;27;20036;-82
2022/12/30 06:49:48;;;;;;;20.08;3.42;;;;;;;4.34;100.00;100896.13;5314399;27;20038;-82
2022/12/30 06:52:20;;;;;;;14.85;4.32;;;;;;;4.29;100.00;100887.66;5339400;27;20111;-83
2022/12/30 06:54:51;;;;;;;18.10;3.50;;;;;;;4.29;100.00;100885.00;5339168;27;20062;-82
2022/12/30 06:57:22;;;;;;;15.70;3.92;;;;;;;4.37;100.00;100876.59;5336503;27;20054;-83
2022/12/30 06:59:57;;;;;;;15.27;4.72;;;;;;;4.34;100.00;100877.63;5336816;27;37475;-83
2022/12/30 07:02:28;;;;;;;16.23;3.45;;;;;;;4.31;100.00;100864.63;5316608;27;20035;-82
2022/12/30 07:05:00;;;;;;;17.77;3.95;;;;;;;4.29;100.00;100856.78;5339660;27;20870;-83
2022/12/30 07:07:31;;;;;;;16.67;4.45;;;;;;;4.31;100.00;100862.84;5337251;27;20085;-82
2022/12/30 07:10:03;;;;;;;19.60;3.83;;;;;;;4.31;100.00;100847.00;5345130;27;20032;-82
2022/12/30 07:12:34;;;;;;;16.35;4.13;;;;;;;4.38;100.00;100847.41;5347164;27;20099;-82
2022/12/30 07:15:06;;;;;;;22.67;4.07;;;;;;;4.39;100.00;100843.84;5345085;27;20589;-83
2022/12/30 07:17:37;;;;;;;13.68;3.72;;;;;;;4.38;100.00;100842.13;5339128;27;20065;-81
2022/12/30 07:20:12;;;;;;;14.68;3.95;;;;;;;4.42;100.00;100832.22;5338199;27;20813;-82
2022/12/30 07:22:44;;;;;;;21.25;4.20;;;;;;;4.44;100.00;100838.25;5335787;27;20028;-82
2022/12/30 07:25:15;;;;;;;16.17;4.13;;;;;;;4.52;100.00;100841.22;5335200;27;20035;-82
2022/12/30 07:27:46;;;;;;;14.68;3.65;;;;;;;4.54;100.00;100829.63;5337776;27;20068;-83
2022/12/30 07:30:18;;;;;;;16.27;4.10;;;;;;;4.58;100.00;100838.16;5335707;27;20020;-82
2022/12/30 07:32:49;;;;;;;14.73;3.60;;;;;;;4.67;100.00;100834.91;5336867;27;20036;-83
2022/12/30 07:35:22;;;;;;;11.52;3.55;;;;;;;4.79;100.00;100817.38;5335532;27;20035;-83
2022/12/30 07:37:53;;;;;;;12.18;3.88;;;;;;;4.80;100.00;100820.84;5342012;27;20035;-82
2022/12/30 07:40:24;;;;;;;10.90;3.45;;;;;;;4.84;100.00;100817.91;5341312;27;20035;-83
2022/12/30 07:42:56;;;;;;;9.05;2.80;;;;;;;4.86;100.00;100810.69;5335548;27;20115;-83
2022/12/30 07:45:27;;;;;;;14.57;3.22;;;;;;;4.89;100.00;100807.84;5334138;27;21028;-84
2022/12/30 07:47:59;;;;;;;9.88;3.40;;;;;;;4.87;100.00;100796.53;5339988;27;20042;-84
2022/12/30 07:50:30;;;;;;;8.35;2.60;;;;;;;4.89;100.00;100784.06;5341104;27;20032;-83
2022/12/30 07:53:01;;;;;;;11.45;2.67;;;;;;;4.91;100.00;100779.50;5333938;27;20020;-84
2022/12/30 07:55:33;;;;;;;12.05;2.80;;;;;;;4.98;100.00;100779.06;5328768;27;20027;-83
2022/12/30 07:58:04;;;;;;;10.30;2.95;;;;;;;4.99;100.00;100771.03;5346073;27;20469;-84
2022/12/30 08:00:36;;;;;;;10.05;2.72;;;;;;;5.09;100.00;100764.13;5339854;27;20511;-84
2022/12/30 08:03:07;;;;;;;11.35;2.97;;;;;;;5.14;100.00;100757.66;5333914;27;20051;-84
2022/12/30 08:05:38;;;;;;;11.90;3.28;;;;;;;5.16;100.00;100759.28;5345850;27;20851;-84
2022/12/30 08:08:10;;;;;;;9.15;2.70;;;;;;;5.23;100.00;100751.75;5346872;27;20012;-84
2022/12/30 08:10:41;;;;;;;10.80;2.90;;;;;;;5.29;100.00;100746.88;5336071;27;20106;-84
2022/12/30 08:13:12;;;;;;;9.88;2.78;;;;;;;5.37;100.00;100748.94;5333728;27;20016;-83
2022/12/30 08:15:43;;;;;;;9.40;2.97;;;;;;;5.44;100.00;100760.78;5317892;27;20084;-84
2022/12/30 08:18:15;;;;;;;8.52;2.60;;;;;;;5.53;100.00;100742.53;5346496;27;20143;-84
2022/12/30 08:20:46;;;;;;;10.60;2.67;;;;;;;5.54;100.00;100736.28;5334715;27;20031;-83
2022/12/30 08:23:17;;;;;;;8.20;3.00;;;;;;;5.61;100.00;100737.50;5326224;27;20103;-84
2022/12/30 08:25:49;;;;;;;11.85;2.70;;;;;;;5.64;100.00;100739.94;5341242;27;20879;-84
2022/12/30 08:28:20;;;;;;;9.50;2.75;;;;;;;5.70;100.00;100744.78;5345796;27;20579;-84
2022/12/30 08:30:51;;;;;;;8.80;2.63;;;;;;;5.72;100.00;100745.53;5341310;27;20471;-84
2022/12/30 08:33:23;;;;;;;7.38;3.00;;;;;;;5.82;100.00;100733.31;5347315;27;20487;-83
2022/12/30 08:36:00;;;;;;;9.02;2.67;;;;;;;5.83;100.00;100721.72;5346795;27;20051;-83
2022/12/30 08:38:34;;;;;;;10.82;2.40;;;;;;;5.87;100.00;100715.28;5346592;27;20038;-83
2022/12/30 08:41:21;;;;;;;8.57;2.38;;;;;;;5.93;100.00;100732.50;5344703;27;20104;-84
2022/12/30 08:43:55;;;;;;;8.40;3.15;;;;;;;5.95;100.00;100712.03;5346786;27;20030;-84
2022/12/30 08:46:30;;;;;;;9.27;2.40;;;;;;;6.04;100.00;100700.78;5344378;27;20128;-83
2022/12/30 08:49:01;;;;;;;11.85;2.63;;;;;;;6.08;100.00;100692.59;5326473;27;20097;-84
2022/12/30 08:51:33;;;;;;;8.57;2.22;;;;;;;6.06;100.00;100693.56;5329623;27;20020;-81
2022/12/30 08:54:05;;;;;;;9.05;3.08;;;;;;;6.12;100.00;100679.03;5346531;27;20077;-81
2022/12/30 08:56:39;;;;;;;7.88;2.15;;;;;;;6.18;100.00;100705.03;5308390;28;20625;-81
2022/12/30 08:59:11;;;;;;;7.57;2.55;;;;;;;6.23;100.00;100683.50;5332924;27;20034;-81
2022/12/30 09:01:43;;;;;;;7.63;2.95;;;;;;;6.28;100.00;100678.69;5342301;27;20031;-83
2022/12/30 09:04:17;;;;;;;8.57;2.17;;;;;;;6.33;100.00;100676.53;5337344;27;20042;-83
2022/12/30 09:06:48;;;;;;;8.70;2.10;;;;;;;6.39;100.00;100668.09;5342296;27;20043;-82
2022/12/30 09:09:20;;;;;;;5.57;1.98;;;;;;;6.45;100.00;100658.81;5323950;27;20032;-83
2022/12/30 09:11:51;;;;;;;8.90;1.98;;;;;;;6.50;100.00;100664.59;5346168;27;20046;-82
2022/12/30 09:14:23;;;;;;;7.85;2.80;;;;;;;6.51;100.00;100662.81;5339584;27;20157;-82
2022/12/30 09:16:54;;;;;;;5.18;1.63;;;;;;;6.58;100.00;100646.28;5321073;27;20151;-82
2022/12/30 09:19:25;;;;;;;8.85;2.00;;;;;;;6.64;100.00;100658.19;5352460;27;20059;-82
2022/12/30 09:21:57;;;;;;;6.22;2.05;;;;;;;6.72;100.00;100650.50;5355115;27;20030;-82
2022/12/30 09:24:29;;;;;;;7.47;2.22;;;;;;;6.78;100.00;100660.63;5358118;27;20383;-81
2022/12/30 09:27:00;;;;;;;8.43;1.73;;;;;;;6.85;100.00;100646.84;5354210;27;20034;-82
2022/12/30 09:29:31;;;;;;;6.38;1.55;;;;;;;6.92;100.00;100648.88;5365457;27;20030;-82
2022/12/30 09:32:03;;;;;;;7.18;1.88;;;;;;;6.94;100.00;100638.16;5365886;27;20061;-82
2022/12/30 09:34:34;;;;;;;4.00;1.30;;;;;;;7.06;100.00;100646.94;5361476;27;20034;-82
2022/12/30 09:37:06;;;;;;;6.03;1.40;;;;;;;7.15;100.00;100640.88;5365412;27;20040;-82
2022/12/30 09:39:37;;;;;;;6.40;2.00;;;;;;;7.14;100.00;100636.56;5367630;27;20138;-82
2022/12/30 09:45:41;;;;;;;5.38;1.40;;;;;;;7.32;100.00;100624.41;5369980;27;20023;-82
2022/12/30 09:48:42;;;;;;;5.70;1.90;;;;;;;7.35;100.00;100616.22;5368042;27;20036;-81
2022/12/30 09:51:25;;;;;;;4.07;1.50;;;;;;;7.36;100.00;100598.47;5367249;27;20031;-82
2022/12/30 09:54:27;;;;;;;7.25;1.50;;;;;;;7.45;100.00;100604.81;5374911;27;20038;-81
2022/12/30 10:00:17;;;;;;;5.70;1.38;;;;;;;7.49;100.00;100585.88;5366592;27;20115;-82
2022/12/30 10:06:44;;;;;;;4.72;1.50;;;;;;;7.45;100.00;100568.53;5357223;27;20114;-82
2022/12/30 10:09:46;;;;;;;5.90;2.10;;;;;;;7.60;100.00;100570.88;5375152;27;20462;-82
2022/12/30 10:12:38;;;;;;;4.68;1.50;;;;;;;7.65;100.00;100568.66;5372268;27;20527;-82
2022/12/30 10:15:18;;;;;;;7.55;1.85;;;;;;;7.67;100.00;100562.25;5373627;27;20027;-83
2022/12/30 10:18:14;;;;;;;6.45;1.52;;;;;;;7.72;100.00;100540.63;5360815;27;20504;-82
2022/12/30 10:21:10;;;;;;;7.68;1.50;;;;;;;7.69;100.00;100540.88;5344438;27;20038;-81
2022/12/30 10:23:59;;;;;;;7.40;1.92;;;;;;;7.73;100.00;100521.91;5348583;27;20027;-83
2022/12/30 10:26:38;;;;;;;9.90;2.13;;;;;;;7.71;100.00;100497.31;5317528;27;20116;-82
2022/12/30 10:29:17;;;;;;;4.07;1.30;;;;;;;7.75;100.00;100496.06;5344166;27;20020;-82
2022/12/30 10:31:50;;;;;;;5.85;1.65;;;;;;;7.76;100.00;100508.34;5322667;27;20476;-81
2022/12/30 10:34:28;;;;;;;3.83;1.60;;;;;;;7.83;100.00;100487.41;5337427;27;20046;-81
2022/12/30 10:37:05;;;;;;;11.85;1.83;;;;;;;7.94;100.00;100502.41;5340674;27;20023;-82
2022/12/30 10:39:45;;;;;;;9.88;2.40;;;;;;;7.95;100.00;100482.84;5340510;27;20036;-82
2022/12/30 10:42:35;;;;;;;7.70;1.70;;;;;;;8.02;100.00;100468.06;5309396;27;20023;-81
2022/12/30 10:45:25;;;;;;;5.03;1.52;;;;;;;8.12;100.00;100460.97;5343519;27;20036;-81
2022/12/30 10:48:20;;;;;;;6.53;1.48;;;;;;;8.18;100.00;100437.50;5341750;27;20031;-82
2022/12/30 10:50:52;;;;;;;9.82;1.77;;;;;;;8.15;100.00;100454.53;5339881;27;20039;-81
2022/12/30 10:53:26;;;;;;;9.18;1.63;;;;;;;8.21;100.00;100434.56;5344578;27;20089;-82
2022/12/30 10:56:00;;;;;;;6.57;1.33;;;;;;;8.18;100.00;100419.72;5274015;28;20095;-83
2022/12/30 10:58:43;;;;;;;8.85;2.03;;;;;;;8.27;100.00;100402.13;5272735;28;20040;-82
2022/12/30 11:01:18;;;;;;;8.90;1.55;;;;;;;8.25;100.00;100402.25;5272809;28;20068;-82
2022/12/30 11:03:56;;;;;;;8.43;1.77;;;;;;;8.27;100.00;100388.84;5281103;28;20124;-81
2022/12/30 11:06:27;;;;;;;;;;;;;;;8.36;100.00;100395.97;5281417;28;20033;-82
2022/12/30 11:09:13;;;;;;;5.63;1.37;;;;;;;8.37;100.00;100384.38;5282225;28;19920;-82
2022/12/30 11:14:46;;;;;;;9.90;2.13;;;;;;;8.35;100.00;100362.41;5280451;28;20541;-81
2022/12/30 11:17:24;;;;;;;5.38;1.10;;;;;;;8.39;100.00;100361.13;5280930;28;20044;-81
2022/12/30 11:20:04;;;;;;;11.27;2.53;;;;;;;8.37;100.00;100355.13;5316741;28;20495;-81
2022/12/30 11:22:35;;;;;;;6.10;1.95;;;;;;;8.39;100.00;100342.53;5307188;28;20115;-81
2022/12/30 11:25:20;;;;;;;8.45;1.75;;;;;;;8.45;100.00;100325.22;5323995;28;20104;-81
2022/12/30 11:27:55;;;;;;;7.95;1.90;;;;;;;8.41;100.00;100327.28;5357193;27;20043;-81
2022/12/30 11:30:34;;;;;;;9.38;2.00;;;;;;;8.41;100.00;100308.69;5349064;27;20678;-82
2022/12/30 11:33:15;;;;;;;5.68;1.70;;;;;;;8.43;100.00;100304.13;5348019;27;20149;-81
2022/12/30 11:35:49;;;;;;;8.43;1.85;;;;;;;8.44;100.00;100284.53;5347894;27;20038;-81
2022/12/30 11:38:40;;;;;;;7.82;2.03;;;;;;;8.55;100.00;100269.41;5348215;27;20023;-82
2022/12/30 11:41:18;;;;;;;5.78;1.65;;;;;;;8.58;100.00;100256.66;5346956;27;20019;-81
2022/12/30 11:44:06;;;;;;;7.85;1.75;;;;;;;8.62;100.00;100259.84;5364986;27;20023;-82
2022/12/30 11:46:45;;;;;;;10.23;1.70;;;;;;;8.67;100.00;100253.13;5359167;27;20041;-82
2022/12/30 11:49:34;;;;;;;7.18;1.85;;;;;;;8.77;100.00;100244.31;5369241;27;20043;-82
2022/12/30 11:52:26;;;;;;;9.75;2.05;;;;;;;8.76;100.00;100232.81;5367164;27;20032;-82
2022/12/30 11:55:02;;;;;;;11.70;2.50;;;;;;;8.82;100.00;100215.44;5359219;27;20057;-82
2022/12/30 11:57:40;;;;;;;10.80;1.98;;;;;;;8.86;100.00;100201.69;5368033;27;20037;-82
2022/12/30 12:00:12;;;;;;;7.85;2.22;;;;;;;8.85;100.00;100204.50;5353164;27;20108;-82
2022/12/30 12:02:49;;;;;;;9.52;2.45;;;;;;;8.85;100.00;100175.25;5348251;27;20015;-82
2022/12/30 12:06:01;;;;;;;5.97;2.40;;;;;;;8.92;100.00;100202.09;5347078;27;20032;-82
2022/12/30 12:08:40;;;;;;;7.20;2.05;;;;;;;9.00;100.00;100196.88;5331004;27;20387;-82
2022/12/30 12:11:19;;;;;;;8.43;2.03;;;;;;;9.03;100.00;100183.28;5354265;27;20063;-81
2022/12/30 12:14:12;;;;;;;8.25;1.77;;;;;;;9.08;100.00;100170.34;5361344;27;20015;-82
2022/12/30 12:17:02;;;;;;;6.30;1.50;;;;;;;9.00;100.00;100170.28;5362139;27;20031;-83
2022/12/30 12:19:50;;;;;;;10.38;2.05;;;;;;;8.83;100.00;100153.28;5344808;27;20040;-82
2022/12/30 12:22:29;;;;;;;6.53;1.85;;;;;;;8.55;100.00;100147.94;5318516;27;20031;-82
2022/12/30 12:25:17;;;;;;;9.77;1.90;;;;;;;8.40;100.00;100141.44;5339294;27;20066;-82
2022/12/30 12:27:50;;;;;;;7.22;1.60;;;;;;;8.27;100.00;100144.38;5341118;27;20031;-81
2022/12/30 12:30:22;;;;;;;10.07;2.40;;;;;;;8.11;100.00;100152.97;5340857;27;20039;-81
2022/12/30 12:33:33;;;;;;;4.72;1.38;;;;;;;8.03;100.00;100112.97;5322643;27;20023;-81
2022/12/30 12:36:25;;;;;;;7.10;2.08;;;;;;;7.94;100.00;100112.03;5340205;27;20027;-82
2022/12/30 12:39:14;;;;;;;12.38;1.92;;;;;;;7.86;100.00;100090.69;5339087;27;20067;-82
2022/12/30 12:42:21;;;;;;;11.05;2.13;;;;;;;7.80;100.00;100091.25;5339622;27;20027;-81
2022/12/30 12:45:14;;;;;;;9.40;2.10;;;;;;;7.75;100.00;100102.31;5320259;27;20109;-82
2022/12/30 12:47:58;;;;;;;13.05;4.72;;;;;;;7.74;100.00;100074.91;5340702;27;20035;-82
2022/12/30 12:50:35;;;;;;;11.65;2.33;;;;;;;7.76;100.00;100056.19;5338292;27;20024;-82
2022/12/30 12:53:37;;;;;;;8.38;2.10;;;;;;;7.72;100.00;100045.00;5339070;27;20033;-82
2022/12/30 12:56:27;;;;;;;8.52;2.35;;;;;;;7.72;100.00;100031.72;5320018;27;20165;-81
2022/12/30 12:59:12;;;;;;;6.47;1.98;;;;;;;7.73;100.00;100027.25;5341090;27;20088;-80
2022/12/30 13:02:22;;;;;;;9.57;2.05;;;;;;;7.68;100.00;100003.81;5332777;27;20036;-79
2022/12/30 13:05:34;;;;;;;7.78;1.70;;;;;;;7.68;100.00;99979.06;5326780;27;20020;-79